createdAt,value
2022-12-22T00:01:12.898Z,99906.27
2022-12-22T00:06:35.168Z,99900.78
2022-12-22T00:11:57.302Z,99900.15
2022-12-22T00:17:21.577Z,99905.69
2022-12-22T00:22:45.164Z,99914.98
2022-12-22T00:28:08.420Z,99910.45
2022-12-22T00:33:33.542Z,99894.66
2022-12-22T00:38:55.764Z,99885.79
2022-12-22T00:44:18.063Z,99887.73
2022-12-22T00:49:45.365Z,99887.16
2022-12-22T00:55:07.802Z,99879.04
2022-12-22T01:00:36.155Z,99873.36
2022-12-22T01:05:58.536Z,99879.20
2022-12-22T01:11:22.025Z,99893.63
2022-12-22T01:16:44.418Z,99889.89
2022-12-22T01:22:06.784Z,99871.86
2022-12-22T01:27:29.392Z,99886.89
2022-12-22T01:32:51.842Z,99873.45
2022-12-22T01:38:13.953Z,99873.42
2022-12-22T01:43:43.805Z,99864.30
2022-12-22T01:49:06.152Z,99869.73
2022-12-22T01:54:29.126Z,99869.94
2022-12-22T01:59:51.463Z,99864.66
2022-12-22T02:05:16.513Z,99853.51
2022-12-22T02:10:46.308Z,99850.85
2022-12-22T02:16:16.971Z,99840.16
2022-12-22T02:21:43.698Z,99838.32
2022-12-22T02:27:10.490Z,99838.16
2022-12-22T02:32:33.807Z,99833.07
2022-12-22T02:38:37.525Z,99824.04
2022-12-22T02:44:37.560Z,99835.56
2022-12-22T02:50:13.285Z,99832.74
2022-12-22T02:55:36.444Z,99829.91
2022-12-22T03:00:59.672Z,99815.64
2022-12-22T03:06:22.253Z,99815.48
2022-12-22T03:11:45.258Z,99808.09
2022-12-22T03:17:07.823Z,99803.83
2022-12-22T03:22:30.408Z,99800.59
2022-12-22T03:27:34.090Z,99802.44
2022-12-22T03:32:37.904Z,99791.36
2022-12-22T03:37:41.611Z,99788.48
2022-12-22T03:43:03.925Z,99783.29
2022-12-22T03:48:07.726Z,99777.54
2022-12-22T03:53:11.725Z,99773.23
2022-12-22T03:58:15.509Z,99780.38
2022-12-22T04:03:19.284Z,99776.30
2022-12-22T04:08:23.319Z,99768.03
2022-12-22T04:13:27.132Z,99758.83
2022-12-22T04:18:32.587Z,99760.75
2022-12-22T04:23:36.411Z,99758.61
2022-12-22T04:28:40.266Z,99752.02
2022-12-22T04:33:44.211Z,99749.04
2022-12-22T04:38:48.316Z,99743.98
2022-12-22T04:43:52.026Z,99731.19
2022-12-22T04:48:59.956Z,99718.46
2022-12-22T04:54:04.556Z,99712.21
2022-12-22T04:59:08.308Z,99713.16
2022-12-22T05:04:12.062Z,99709.41
2022-12-22T05:09:16.270Z,99717.77
2022-12-22T05:14:20.053Z,99718.63
2022-12-22T05:19:27.501Z,99712.49
2022-12-22T05:24:34.537Z,99710.02
2022-12-22T05:29:38.241Z,99708.06
2022-12-22T05:34:42.098Z,99696.67
2022-12-22T05:39:45.920Z,99681.75
2022-12-22T05:44:49.624Z,99681.70
2022-12-22T05:49:53.318Z,99682.15
2022-12-22T05:55:01.734Z,99679.81
2022-12-22T06:00:09.449Z,99664.73
2022-12-22T06:05:16.532Z,99655.98
2022-12-22T06:10:20.226Z,99654.25
2022-12-22T06:15:23.893Z,99650.52
2022-12-22T06:20:27.714Z,99651.97
2022-12-22T06:25:31.458Z,99656.35
2022-12-22T06:30:35.368Z,99656.56
2022-12-22T06:35:39.169Z,99646.88
2022-12-22T06:40:43.028Z,99648.13
2022-12-22T06:45:46.791Z,99647.15
2022-12-22T06:50:50.766Z,99642.02
2022-12-22T06:55:54.429Z,99639.64
2022-12-22T07:00:58.183Z,99629.60
2022-12-22T07:06:01.903Z,99630.21
2022-12-22T07:11:06.442Z,99625.90
2022-12-22T07:16:11.234Z,99614.00
2022-12-22T07:21:15.289Z,99611.76
2022-12-22T07:26:18.979Z,99614.81
2022-12-22T07:31:24.937Z,99605.48
2022-12-22T07:36:28.781Z,99603.94
2022-12-22T07:41:51.185Z,99604.93
2022-12-22T07:46:55.786Z,99601.44
2022-12-22T07:52:00.127Z,99591.88
2022-12-22T07:57:04.720Z,99594.23
2022-12-22T08:02:11.404Z,99582.22
2022-12-22T08:07:15.362Z,99567.78
2022-12-22T08:12:19.837Z,99562.86
2022-12-22T08:17:23.634Z,99563.56
2022-12-22T08:22:27.527Z,99566.92
2022-12-22T08:27:40.171Z,99554.97
2022-12-22T08:32:48.058Z,99554.25
2022-12-22T08:37:52.786Z,99548.91
2022-12-22T08:43:00.569Z,99552.19
2022-12-22T08:48:04.760Z,99545.36
2022-12-22T08:53:29.734Z,99536.05
2022-12-22T08:58:34.029Z,99535.27
2022-12-22T16:16:38.307Z,99212.64
2022-12-22T16:21:44.287Z,99212.80
2022-12-22T16:26:48.172Z,99213.61
2022-12-22T16:31:53.900Z,99213.17
2022-12-22T16:36:57.732Z,99209.24
2022-12-22T16:42:01.491Z,99210.64
2022-12-22T16:47:06.119Z,99207.68
2022-12-22T16:52:16.929Z,99201.79
2022-12-22T16:57:20.715Z,99206.38
2022-12-22T17:02:30.403Z,99203.50
2022-12-22T17:07:34.183Z,99204.44
2022-12-22T17:12:37.997Z,99199.55
2022-12-22T17:17:42.526Z,99201.41
2022-12-22T17:22:52.440Z,99204.28
2022-12-22T17:27:57.123Z,99203.13
2022-12-22T17:33:00.795Z,99209.98
2022-12-22T17:38:04.951Z,99202.58
2022-12-22T17:43:19.948Z,99195.83
2022-12-22T17:48:23.619Z,99199.52
2022-12-22T17:53:27.362Z,99197.30
2022-12-22T17:58:31.206Z,99192.27
2022-12-22T18:03:35.350Z,99196.75
2022-12-22T18:08:39.248Z,99200.65
2022-12-22T18:13:43.371Z,99194.95
2022-12-22T18:18:47.461Z,99189.83
2022-12-22T18:23:52.248Z,99189.29
2022-12-22T18:28:56.690Z,99189.48
2022-12-22T18:34:16.627Z,99189.39
2022-12-22T18:39:21.221Z,99188.89
2022-12-22T18:44:26.478Z,99190.16
2022-12-22T18:49:31.398Z,99191.95
2022-12-22T18:54:37.482Z,99194.61
2022-12-22T18:59:41.903Z,99195.46
2022-12-22T19:04:46.294Z,99197.97
2022-12-22T19:09:51.413Z,99194.73
2022-12-22T19:14:59.843Z,99199.23
2022-12-22T19:20:05.300Z,99203.36
2022-12-22T19:25:14.994Z,99209.85
2022-12-22T19:30:23.743Z,99219.80
2022-12-22T19:35:30.219Z,99220.45
2022-12-22T19:40:35.106Z,99222.11
2022-12-22T19:45:39.614Z,99221.95
2022-12-22T19:50:43.579Z,99232.83
2022-12-22T19:55:51.735Z,99234.73
2022-12-22T20:00:56.387Z,99235.54
2022-12-22T20:06:00.627Z,99224.91
2022-12-22T20:11:12.708Z,99227.80
2022-12-22T20:16:17.876Z,99233.70
2022-12-22T20:21:27.622Z,99241.73
2022-12-22T20:26:34.260Z,99251.35
2022-12-22T20:31:39.013Z,99258.20
2022-12-22T20:36:44.202Z,99264.41
2022-12-22T20:41:53.325Z,99271.69
2022-12-22T20:46:58.183Z,99268.11
2022-12-22T20:52:02.714Z,99280.30
2022-12-22T20:57:06.822Z,99286.92
2022-12-22T21:02:23.484Z,99294.45
2022-12-22T21:07:28.125Z,99303.62
2022-12-22T21:12:32.915Z,99307.52
2022-12-22T21:17:37.183Z,99309.98
2022-12-22T21:22:43.294Z,99316.45
2022-12-22T21:27:49.859Z,99321.94
2022-12-22T21:32:54.521Z,99329.41
2022-12-22T21:37:59.060Z,99333.98
2022-12-22T21:43:02.827Z,99335.35
2022-12-22T21:48:07.765Z,99344.67
2022-12-22T21:53:19.818Z,99350.00
2022-12-22T21:58:25.904Z,99360.23
2022-12-22T22:03:30.263Z,99363.84
2022-12-22T22:08:34.231Z,99369.57
2022-12-22T22:13:38.025Z,99372.24
2022-12-22T22:18:43.055Z,99372.43
2022-12-22T22:23:46.759Z,99381.63
2022-12-22T22:28:53.717Z,99379.24
2022-12-22T22:33:57.823Z,99376.98
2022-12-22T22:39:01.539Z,99380.94
2022-12-22T22:44:05.508Z,99383.90
2022-12-22T22:49:09.539Z,99385.71
2022-12-22T22:54:13.442Z,99394.73
2022-12-22T22:59:17.215Z,99397.66
2022-12-22T23:04:21.019Z,99394.98
2022-12-22T23:09:24.865Z,99392.95
2022-12-22T23:14:28.670Z,99395.38
2022-12-22T23:19:32.362Z,99389.98
2022-12-22T23:24:36.093Z,99382.59
2022-12-22T23:29:39.841Z,99376.92
2022-12-22T23:34:43.588Z,99377.66
2022-12-22T23:39:47.399Z,99380.46
2022-12-22T23:44:51.065Z,99374.37
2022-12-22T23:49:55.277Z,99365.45
2022-12-22T23:54:58.983Z,99375.29
